createdAt,value
2023-03-06T00:00:16.962Z,11.89
2023-03-06T00:00:43.931Z,11.88
2023-03-06T00:01:08.202Z,11.84
2023-03-06T00:01:29.830Z,11.84
2023-03-06T00:01:51.776Z,11.78
2023-03-06T00:02:14.312Z,11.68
2023-03-06T00:02:36.037Z,11.71
2023-03-06T00:02:59.218Z,11.70
2023-03-06T00:03:22.246Z,11.66
2023-03-06T00:03:43.916Z,11.58
2023-03-06T00:04:08.141Z,11.68
2023-03-06T00:04:29.775Z,11.66
2023-03-06T00:04:53.249Z,11.69
2023-03-06T00:05:15.620Z,11.70
2023-03-06T00:05:37.350Z,11.67
2023-03-06T00:06:00.007Z,11.65
2023-03-06T00:06:22.806Z,11.72
2023-03-06T00:06:44.625Z,11.72
2023-03-06T00:07:06.294Z,11.73
2023-03-06T00:07:28.013Z,11.71
2023-03-06T00:07:49.796Z,11.52
2023-03-06T00:08:12.688Z,11.60
2023-03-06T00:08:34.365Z,11.64
2023-03-06T00:08:56.014Z,11.59
2023-03-06T00:09:17.713Z,11.57
2023-03-06T00:09:39.450Z,11.55
2023-03-06T00:10:02.031Z,11.53
2023-03-06T00:10:25.736Z,11.52
2023-03-06T00:10:47.391Z,11.50
2023-03-06T00:11:09.034Z,11.48
2023-03-06T00:11:31.633Z,11.52
2023-03-06T00:11:53.243Z,11.52
2023-03-06T00:12:14.935Z,11.51
2023-03-06T00:12:36.580Z,11.51
2023-03-06T00:13:01.425Z,11.52
2023-03-06T00:13:23.397Z,11.53
2023-03-06T00:13:45.058Z,11.56
2023-03-06T00:14:06.667Z,11.54
2023-03-06T00:14:28.317Z,11.54
2023-03-06T00:14:50.894Z,11.59
2023-03-06T00:15:13.842Z,11.59
2023-03-06T00:15:35.445Z,11.59
2023-03-06T00:15:59.009Z,11.60
2023-03-06T00:16:20.731Z,11.65
2023-03-06T00:16:43.537Z,11.64
2023-03-06T00:17:05.291Z,11.62
2023-03-06T00:17:28.011Z,11.60
2023-03-06T00:17:49.709Z,11.61
2023-03-06T00:18:14.084Z,11.63
2023-03-06T00:18:35.686Z,11.64
2023-03-06T00:18:57.239Z,11.55
2023-03-06T00:19:18.883Z,11.62
2023-03-06T00:19:41.598Z,11.66
2023-03-06T00:20:04.867Z,11.58
2023-03-06T00:20:27.173Z,11.61
2023-03-06T00:20:48.838Z,11.66
2023-03-06T00:21:11.581Z,11.67
2023-03-06T00:21:33.206Z,11.66
2023-03-06T00:21:54.880Z,11.66
2023-03-06T00:22:16.524Z,11.65
2023-03-06T00:22:38.712Z,11.63
2023-03-06T00:23:01.841Z,11.58
2023-03-06T00:23:23.567Z,11.58
2023-03-06T00:23:45.233Z,11.58
2023-03-06T00:24:07.158Z,11.57
2023-03-06T00:24:29.699Z,11.58
2023-03-06T00:24:53.517Z,11.57
2023-03-06T00:25:16.911Z,11.54
2023-03-06T00:25:42.575Z,11.53
2023-03-06T00:26:07.873Z,11.52
2023-03-06T00:26:29.609Z,11.50
2023-03-06T00:26:51.201Z,11.53
2023-03-06T00:27:13.086Z,11.46
2023-03-06T00:27:35.717Z,11.43
2023-03-06T00:27:57.454Z,11.38
2023-03-06T00:28:19.276Z,11.25
2023-03-06T00:28:42.421Z,11.27
2023-03-06T00:29:05.307Z,11.26
2023-03-06T00:29:26.915Z,11.22
2023-03-06T00:29:49.717Z,11.24
2023-03-06T00:30:13.454Z,11.31
2023-03-06T00:30:38.008Z,11.34
2023-03-06T00:31:00.456Z,11.35
2023-03-06T00:31:23.552Z,11.34
2023-03-06T00:31:47.844Z,11.31
2023-03-06T00:32:10.940Z,11.34
2023-03-06T00:32:32.924Z,11.32
2023-03-06T00:32:54.729Z,11.31
2023-03-06T00:33:17.823Z,11.32
2023-03-06T00:33:39.442Z,11.31
2023-03-06T00:34:02.124Z,11.29
2023-03-06T00:34:23.827Z,11.31
2023-03-06T00:34:48.718Z,11.23
2023-03-06T00:35:11.612Z,11.28
2023-03-06T00:35:34.324Z,11.35
2023-03-06T00:35:55.959Z,11.23
2023-03-06T00:36:17.812Z,11.32
2023-03-06T00:36:39.576Z,11.32
2023-03-06T00:37:04.420Z,11.29
2023-03-06T00:37:27.397Z,11.30
2023-03-06T00:37:50.350Z,11.16
2023-03-06T00:38:12.534Z,11.16
2023-03-06T00:38:35.538Z,11.21
2023-03-06T00:38:58.137Z,11.19
2023-03-06T00:39:20.582Z,11.17
2023-03-06T00:39:42.192Z,11.17
2023-03-06T00:40:05.393Z,11.17
2023-03-06T00:40:27.165Z,11.09
2023-03-06T00:40:49.801Z,11.07
2023-03-06T00:41:13.034Z,11.05
2023-03-06T00:41:34.643Z,10.97
2023-03-06T00:41:56.331Z,11.09
2023-03-06T00:42:21.235Z,11.02
2023-03-06T00:42:42.996Z,11.14
2023-03-06T00:43:04.670Z,11.14
2023-03-06T00:43:26.358Z,11.11
2023-03-06T00:43:48.025Z,11.10
2023-03-06T00:44:10.628Z,11.09
2023-03-06T00:44:32.518Z,11.10
2023-03-06T00:44:54.160Z,11.10
2023-03-06T00:45:17.785Z,11.09
2023-03-06T00:45:40.877Z,11.03
2023-03-06T00:46:04.004Z,10.86
2023-03-06T00:46:26.602Z,11.01
2023-03-06T00:46:48.267Z,10.82
2023-03-06T00:47:11.168Z,11.04
2023-03-06T00:47:33.129Z,11.00
2023-03-06T00:47:54.805Z,11.00
2023-03-06T00:48:17.785Z,10.94
2023-03-06T00:48:40.678Z,10.92
2023-03-06T00:49:02.307Z,10.94
2023-03-06T00:49:23.932Z,10.85
2023-03-06T00:49:45.794Z,10.86
2023-03-06T00:50:09.803Z,10.77
2023-03-06T00:50:31.673Z,10.77
2023-03-06T00:50:54.714Z,10.78
2023-03-06T00:51:19.187Z,10.79
2023-03-06T00:51:41.829Z,10.81
2023-03-06T00:52:04.068Z,10.72
2023-03-06T00:52:25.697Z,10.80
2023-03-06T00:52:47.424Z,10.82
2023-03-06T00:53:10.971Z,10.84
2023-03-06T00:53:32.563Z,10.87
2023-03-06T00:53:54.204Z,10.87
2023-03-06T00:54:15.772Z,10.91
2023-03-06T00:54:38.393Z,10.92
2023-03-06T00:55:00.378Z,10.90
2023-03-06T00:55:22.351Z,10.89
2023-03-06T00:55:44.676Z,10.73
2023-03-06T00:56:09.058Z,10.89
2023-03-06T00:56:30.809Z,10.90
2023-03-06T00:56:52.558Z,10.92
2023-03-06T00:57:14.361Z,10.93
2023-03-06T00:57:36.053Z,10.95
2023-03-06T00:57:58.639Z,10.99
2023-03-06T00:58:22.193Z,10.89
2023-03-06T00:58:43.891Z,11.03
2023-03-06T00:59:05.559Z,11.03
2023-03-06T00:59:27.690Z,11.05
2023-03-06T00:59:50.322Z,11.08
2023-03-06T01:00:13.401Z,11.07
2023-03-06T01:00:35.026Z,11.07
2023-03-06T01:00:56.717Z,11.04
2023-03-06T01:01:18.424Z,10.96
2023-03-06T01:01:41.015Z,11.07
2023-03-06T01:02:03.323Z,11.11
2023-03-06T01:02:25.572Z,11.10
2023-03-06T01:02:49.627Z,11.04
2023-03-06T01:03:12.691Z,11.08
2023-03-06T01:03:35.724Z,11.14
2023-03-06T01:03:57.543Z,11.13
2023-03-06T01:04:19.297Z,11.15
2023-03-06T01:04:43.017Z,11.15
2023-03-06T01:05:09.159Z,11.09
2023-03-06T01:05:35.712Z,11.12
2023-03-06T01:05:57.339Z,11.03
2023-03-06T01:06:18.921Z,11.12
2023-03-06T01:06:41.746Z,11.15
2023-03-06T01:07:03.728Z,11.14
2023-03-06T01:07:27.291Z,11.12
2023-03-06T01:07:48.913Z,11.12
2023-03-06T01:08:10.573Z,11.11
2023-03-06T01:08:33.243Z,11.11
2023-03-06T01:08:54.929Z,11.02
2023-03-06T01:09:16.741Z,11.08
2023-03-06T01:09:38.478Z,11.08
2023-03-06T01:10:01.244Z,11.17
2023-03-06T01:10:22.977Z,11.18
2023-03-06T01:10:44.847Z,11.19
2023-03-06T01:11:06.551Z,11.12
2023-03-06T01:11:29.102Z,11.06
2023-03-06T01:11:50.891Z,11.13
2023-03-06T01:12:12.772Z,11.05
2023-03-06T01:12:34.490Z,11.12
2023-03-06T01:12:56.391Z,11.15
2023-03-06T01:13:21.665Z,11.14
2023-03-06T01:13:44.196Z,11.15
2023-03-06T01:14:05.833Z,11.14
2023-03-06T01:14:27.944Z,11.15
2023-03-06T01:14:50.732Z,11.16
2023-03-06T01:15:13.560Z,11.14
2023-03-06T01:15:35.197Z,11.14
2023-03-06T01:16:06.309Z,11.15
2023-03-06T01:16:29.021Z,11.16
2023-03-06T01:16:50.818Z,11.12
2023-03-06T01:17:12.502Z,11.15
2023-03-06T01:17:42.053Z,11.16
2023-03-06T01:18:05.254Z,11.08
2023-03-06T01:18:26.890Z,11.15
2023-03-06T01:18:50.352Z,11.13
2023-03-06T01:19:12.283Z,11.07
2023-03-06T01:19:34.157Z,11.15
2023-03-06T01:19:56.707Z,11.18
2023-03-06T01:20:19.175Z,11.20
2023-03-06T01:20:40.862Z,11.21
2023-03-06T01:21:02.921Z,11.23
2023-03-06T01:21:24.768Z,11.22
2023-03-06T01:21:46.470Z,11.26
2023-03-06T01:22:09.085Z,11.24
2023-03-06T01:22:31.160Z,11.30
2023-03-06T01:22:55.411Z,11.19
2023-03-06T01:23:17.008Z,11.18
2023-03-06T01:23:39.702Z,11.20
2023-03-06T01:24:01.282Z,11.21
2023-03-06T01:24:25.652Z,11.22
2023-03-06T01:24:51.018Z,11.22
2023-03-06T01:25:14.285Z,11.24
2023-03-06T01:25:35.961Z,11.25
2023-03-06T01:25:57.861Z,11.24
2023-03-06T01:26:19.502Z,11.25
2023-03-06T01:26:42.185Z,11.26
2023-03-06T01:27:03.841Z,11.29
2023-03-06T01:27:25.602Z,11.26
2023-03-06T01:27:47.222Z,11.30
2023-03-06T01:28:09.859Z,11.33
2023-03-06T01:28:33.860Z,11.36
2023-03-06T01:28:57.526Z,11.39
2023-03-06T01:29:19.219Z,11.38
2023-03-06T01:29:41.819Z,11.41
2023-03-06T01:30:04.116Z,11.38
2023-03-06T01:30:26.155Z,11.40
2023-03-06T01:30:47.735Z,11.39
2023-03-06T01:31:11.567Z,11.42
2023-03-06T01:31:33.840Z,11.42
2023-03-06T01:31:55.654Z,11.43
2023-03-06T01:32:17.306Z,11.44
2023-03-06T01:32:39.246Z,11.45
2023-03-06T01:33:02.420Z,11.46
2023-03-06T01:33:24.014Z,11.44
2023-03-06T01:33:45.843Z,11.48
2023-03-06T01:34:10.408Z,11.50
2023-03-06T01:34:32.399Z,11.51
2023-03-06T01:34:55.161Z,11.32
2023-03-06T01:35:17.089Z,11.53
2023-03-06T01:35:39.050Z,11.46
2023-03-06T01:36:04.519Z,11.43
2023-03-06T01:36:27.257Z,11.42
2023-03-06T01:36:49.091Z,11.41
2023-03-06T01:37:10.804Z,11.41
2023-03-06T01:37:32.586Z,11.36
2023-03-06T01:37:54.458Z,11.36
2023-03-06T01:38:17.026Z,11.29
2023-03-06T01:38:38.909Z,11.31
2023-03-06T01:39:00.642Z,11.30
2023-03-06T01:39:22.269Z,11.29
2023-03-06T01:39:43.946Z,11.29
2023-03-06T01:40:08.247Z,11.14
2023-03-06T01:40:32.906Z,11.33
2023-03-06T01:40:54.724Z,11.35
2023-03-06T01:41:16.558Z,11.31
2023-03-06T01:41:38.204Z,11.33
2023-03-06T01:42:00.834Z,11.19
2023-03-06T01:42:22.875Z,11.28
2023-03-06T01:42:46.378Z,11.24
2023-03-06T01:43:24.606Z,11.25
2023-03-06T01:43:48.245Z,11.31
2023-03-06T01:44:10.674Z,11.26
2023-03-06T01:44:32.475Z,11.22
2023-03-06T01:45:02.407Z,11.22
2023-03-06T01:46:02.081Z,11.25
2023-03-06T01:46:30.372Z,11.17
2023-03-06T01:46:51.999Z,11.19
2023-03-06T01:47:14.133Z,11.15
2023-03-06T01:47:36.817Z,11.19
2023-03-06T01:47:58.989Z,11.17
2023-03-06T01:48:23.257Z,11.05
2023-03-06T01:48:47.265Z,11.03
2023-03-06T01:49:16.840Z,11.09
2023-03-06T01:49:41.895Z,11.13
2023-03-06T01:50:06.160Z,11.16
2023-03-06T01:50:28.568Z,11.20
2023-03-06T01:50:51.023Z,11.21
2023-03-06T01:51:12.766Z,11.21
2023-03-06T01:51:40.230Z,11.21
2023-03-06T01:52:06.939Z,11.20
2023-03-06T01:52:32.848Z,11.19
2023-03-06T01:52:57.949Z,11.19
2023-03-06T01:53:21.830Z,11.19
2023-03-06T01:53:43.845Z,11.10
2023-03-06T01:54:10.541Z,11.10
2023-03-06T01:54:36.618Z,11.08
2023-03-06T01:55:01.489Z,10.99
2023-03-06T01:55:26.694Z,11.09
2023-03-06T01:55:48.553Z,11.01
2023-03-06T01:56:13.991Z,11.00
2023-03-06T01:56:36.949Z,10.97
2023-03-06T01:57:03.139Z,10.99
2023-03-06T01:57:27.429Z,10.99
2023-03-06T01:57:53.520Z,11.00
2023-03-06T01:58:18.534Z,10.99
2023-03-06T01:58:43.806Z,11.06
2023-03-06T01:59:07.140Z,11.03
2023-03-06T01:59:30.705Z,11.04
2023-03-06T01:59:56.301Z,11.02
2023-03-06T02:00:22.718Z,11.06
2023-03-06T02:00:44.734Z,11.01
2023-03-06T02:01:06.505Z,11.00
2023-03-06T02:01:30.801Z,11.01
2023-03-06T02:01:56.389Z,11.07
2023-03-06T02:02:18.158Z,11.01
2023-03-06T02:02:42.292Z,11.00
2023-03-06T02:03:08.803Z,11.00
2023-03-06T02:03:33.713Z,10.97
2023-03-06T02:03:56.137Z,11.00
2023-03-06T02:04:19.608Z,10.99
2023-03-06T02:04:42.346Z,10.98
2023-03-06T02:05:07.610Z,10.90
2023-03-06T02:05:29.817Z,10.95
2023-03-06T02:05:51.550Z,10.96
2023-03-06T02:06:13.682Z,10.90
2023-03-06T02:06:39.262Z,10.94
2023-03-06T02:07:04.768Z,10.92
2023-03-06T02:07:30.081Z,10.86
2023-03-06T02:07:52.117Z,10.91
2023-03-06T02:08:17.022Z,10.93
2023-03-06T02:08:40.501Z,10.95
2023-03-06T02:09:04.011Z,10.99
2023-03-06T02:09:30.882Z,11.04
2023-03-06T02:09:53.512Z,11.07
2023-03-06T02:10:16.146Z,11.11
2023-03-06T02:10:37.753Z,11.03
2023-03-06T02:11:06.478Z,11.15
2023-03-06T02:11:28.329Z,11.20
2023-03-06T02:11:51.006Z,11.21
2023-03-06T02:12:16.428Z,11.21
2023-03-06T02:12:40.290Z,11.25
2023-03-06T02:13:02.394Z,11.25
2023-03-06T02:13:24.457Z,11.27
2023-03-06T02:13:49.856Z,11.25
2023-03-06T02:14:15.594Z,11.26
2023-03-06T02:14:38.374Z,11.23
2023-03-06T02:15:00.782Z,11.21
2023-03-06T02:15:25.861Z,11.22
2023-03-06T02:15:48.245Z,11.20
2023-03-06T02:16:11.248Z,11.17
2023-03-06T02:16:34.023Z,11.14
2023-03-06T02:16:56.855Z,11.15
2023-03-06T02:17:21.417Z,11.14
2023-03-06T02:17:44.678Z,11.13
2023-03-06T02:18:06.558Z,11.17
2023-03-06T02:18:29.828Z,11.08
2023-03-06T02:18:51.939Z,11.10
2023-03-06T02:19:29.754Z,11.10
2023-03-06T02:19:58.780Z,11.09
2023-03-06T02:20:27.457Z,11.11
2023-03-06T02:20:52.065Z,11.10
2023-03-06T02:21:20.397Z,11.12
2023-03-06T02:21:42.162Z,11.12
2023-03-06T02:22:05.119Z,11.12
2023-03-06T02:22:36.269Z,11.13
2023-03-06T02:23:04.259Z,11.10
2023-03-06T02:23:31.850Z,11.10
2023-03-06T02:24:20.672Z,10.92
2023-03-06T02:24:51.763Z,11.10
2023-03-06T02:25:26.511Z,11.13
2023-03-06T02:25:51.936Z,11.13
2023-03-06T02:26:14.941Z,11.11
2023-03-06T02:26:38.041Z,11.08
2023-03-06T02:27:02.958Z,11.06
2023-03-06T02:27:27.847Z,11.09
2023-03-06T02:27:50.808Z,11.09
2023-03-06T02:28:15.743Z,11.05
2023-03-06T02:28:37.763Z,11.06
2023-03-06T02:29:00.370Z,11.09
2023-03-06T02:29:26.041Z,10.96
2023-03-06T02:29:48.255Z,10.95
2023-03-06T02:30:14.986Z,10.95
2023-03-06T02:30:38.370Z,10.94
2023-03-06T02:31:00.265Z,10.95
2023-03-06T02:31:24.849Z,10.90
2023-03-06T02:31:46.508Z,10.95
2023-03-06T02:32:09.657Z,10.91
2023-03-06T02:32:31.598Z,10.92
2023-03-06T02:32:53.784Z,10.88
2023-03-06T02:33:18.281Z,10.74
2023-03-06T02:33:40.868Z,10.80
2023-03-06T02:34:06.151Z,10.76
2023-03-06T02:34:57.515Z,10.77
2023-03-06T02:35:22.392Z,10.72
2023-03-06T02:35:49.783Z,10.84
2023-03-06T02:36:15.414Z,10.88
2023-03-06T02:36:42.706Z,10.90
2023-03-06T02:37:08.848Z,10.89
2023-03-06T02:37:30.709Z,10.88
2023-03-06T02:37:57.748Z,10.86
2023-03-06T02:38:22.386Z,10.87
2023-03-06T02:38:47.458Z,10.82
2023-03-06T02:39:09.136Z,10.88
2023-03-06T02:39:34.505Z,10.89
2023-03-06T02:40:08.017Z,10.68
2023-03-06T02:40:31.068Z,10.91
2023-03-06T02:40:53.002Z,10.92
2023-03-06T02:41:14.858Z,10.89
2023-03-06T02:41:37.674Z,10.83
2023-03-06T02:41:59.330Z,10.87
2023-03-06T02:42:26.033Z,10.86
2023-03-06T02:42:51.141Z,10.83
2023-03-06T02:43:16.577Z,10.88
2023-03-06T02:43:40.116Z,10.88
2023-03-06T02:44:01.840Z,10.91
2023-03-06T02:44:24.857Z,10.91
2023-03-06T02:44:47.715Z,10.86
2023-03-06T02:45:13.858Z,10.94
2023-03-06T02:45:39.462Z,10.95
2023-03-06T02:46:01.160Z,10.92
2023-03-06T02:46:23.417Z,10.93
2023-03-06T02:46:46.132Z,10.93
2023-03-06T02:47:07.921Z,10.93
2023-03-06T02:47:30.113Z,10.94
2023-03-06T02:47:51.805Z,10.72
2023-03-06T02:48:15.946Z,10.95
2023-03-06T02:48:37.976Z,10.95
2023-03-06T02:48:59.672Z,10.92
2023-03-06T02:49:21.303Z,10.96
2023-03-06T02:49:42.994Z,10.94
2023-03-06T02:50:05.303Z,10.99
2023-03-06T02:50:28.027Z,11.00
2023-03-06T02:50:49.781Z,10.99
2023-03-06T02:51:11.428Z,11.02
2023-03-06T02:51:33.051Z,10.98
2023-03-06T02:51:55.870Z,11.03
2023-03-06T02:52:18.758Z,11.01
2023-03-06T02:52:40.518Z,11.06
2023-03-06T02:53:02.156Z,11.05
2023-03-06T02:53:25.757Z,11.06
2023-03-06T02:53:48.600Z,11.06
2023-03-06T02:54:10.922Z,11.06
2023-03-06T02:54:32.557Z,11.06
2023-03-06T02:54:54.279Z,11.07
2023-03-06T02:55:16.023Z,10.98
2023-03-06T02:55:40.093Z,11.03
2023-03-06T02:56:01.953Z,11.03
2023-03-06T02:56:23.746Z,11.04
2023-03-06T02:56:45.727Z,10.96
2023-03-06T02:57:07.376Z,11.03
2023-03-06T02:57:30.455Z,11.04
2023-03-06T02:57:53.321Z,11.01
2023-03-06T02:58:15.105Z,10.97
2023-03-06T02:58:36.771Z,10.96
2023-03-06T02:58:59.592Z,10.94
2023-03-06T02:59:21.252Z,10.95
2023-03-06T02:59:42.883Z,10.91
2023-03-06T03:00:06.258Z,10.93
2023-03-06T03:00:29.370Z,10.92
2023-03-06T03:00:51.082Z,10.91
2023-03-06T03:01:14.245Z,10.78
2023-03-06T03:01:36.957Z,10.92
2023-03-06T03:01:58.681Z,10.92
2023-03-06T03:02:21.299Z,10.95
2023-03-06T03:02:46.165Z,10.98
2023-03-06T03:03:07.911Z,10.91
2023-03-06T03:03:29.858Z,10.97
2023-03-06T03:03:53.689Z,10.98
2023-03-06T03:04:16.017Z,10.99
2023-03-06T03:04:37.821Z,10.98
2023-03-06T03:05:00.746Z,11.00
2023-03-06T03:05:24.770Z,10.96
2023-03-06T03:05:52.718Z,10.87
2023-03-06T03:06:18.707Z,10.87
2023-03-06T03:06:40.458Z,10.87
2023-03-06T03:07:03.204Z,10.86
2023-03-06T03:07:25.723Z,10.86
2023-03-06T03:07:48.139Z,10.78
2023-03-06T03:08:09.902Z,10.92
2023-03-06T03:08:31.781Z,10.93
2023-03-06T03:08:56.939Z,10.79
2023-03-06T03:09:18.992Z,10.94
2023-03-06T03:09:40.928Z,10.93
2023-03-06T03:10:02.769Z,10.94
2023-03-06T03:10:27.062Z,10.93
2023-03-06T03:10:50.162Z,10.90
2023-03-06T03:11:12.370Z,10.91
2023-03-06T03:11:37.692Z,10.89
2023-03-06T03:11:59.983Z,10.85
2023-03-06T03:12:23.296Z,10.83
2023-03-06T03:12:45.045Z,10.85
2023-03-06T03:13:08.226Z,10.85
2023-03-06T03:13:30.673Z,10.82
2023-03-06T03:13:52.527Z,10.85
2023-03-06T03:14:19.252Z,10.84
2023-03-06T03:14:42.000Z,10.86
2023-03-06T03:15:04.248Z,10.90
2023-03-06T03:15:26.154Z,10.92
2023-03-06T03:15:59.051Z,10.90
2023-03-06T03:16:20.760Z,10.92
2023-03-06T03:16:43.389Z,10.92
2023-03-06T03:17:05.447Z,10.94
2023-03-06T03:17:28.034Z,10.95
2023-03-06T03:17:49.671Z,10.97
2023-03-06T03:18:12.035Z,10.95
2023-03-06T03:18:34.036Z,10.93
2023-03-06T03:18:55.692Z,10.71
2023-03-06T03:19:19.220Z,10.90
2023-03-06T03:19:41.112Z,10.89
2023-03-06T03:20:03.046Z,10.87
2023-03-06T03:20:24.817Z,10.88
2023-03-06T03:20:47.493Z,10.89
2023-03-06T03:21:12.173Z,10.87
2023-03-06T03:21:33.880Z,10.89
2023-03-06T03:21:55.535Z,10.88
2023-03-06T03:22:20.133Z,10.79
2023-03-06T03:22:41.798Z,10.78
2023-03-06T03:23:03.655Z,10.85
2023-03-06T03:23:25.902Z,10.84
2023-03-06T03:23:47.827Z,10.80
2023-03-06T03:24:10.479Z,10.85
2023-03-06T03:24:32.237Z,10.87
2023-03-06T03:24:55.135Z,10.85
2023-03-06T03:25:17.054Z,10.85
2023-03-06T03:25:39.735Z,10.87
2023-03-06T03:26:08.215Z,10.86
2023-03-06T03:26:31.587Z,10.83
2023-03-06T03:27:06.558Z,10.77
2023-03-06T03:27:29.803Z,10.81
2023-03-06T03:27:51.672Z,10.86
2023-03-06T03:28:14.441Z,10.88
2023-03-06T03:28:36.282Z,10.90
2023-03-06T03:28:58.003Z,10.92
2023-03-06T03:29:20.888Z,10.95
2023-03-06T03:29:42.976Z,10.97
2023-03-06T03:30:05.882Z,10.96
2023-03-06T03:30:27.487Z,10.93
2023-03-06T03:30:50.276Z,10.91
2023-03-06T03:31:12.737Z,10.89
2023-03-06T03:31:34.369Z,10.88
2023-03-06T03:31:57.056Z,10.87
2023-03-06T03:32:21.544Z,10.88
2023-03-06T03:32:43.288Z,10.88
2023-03-06T03:33:04.987Z,10.89
2023-03-06T03:33:27.178Z,10.89
2023-03-06T03:33:49.816Z,10.91
2023-03-06T03:34:13.246Z,10.94
2023-03-06T03:34:36.585Z,10.98
2023-03-06T03:34:58.371Z,10.94
2023-03-06T03:35:21.886Z,10.94
2023-03-06T03:35:43.478Z,10.97
2023-03-06T03:36:07.698Z,11.01
2023-03-06T03:36:33.102Z,11.03
2023-03-06T03:36:56.060Z,11.02
2023-03-06T03:37:17.647Z,11.03
2023-03-06T03:37:39.544Z,10.96
2023-03-06T03:38:01.228Z,10.93
2023-03-06T03:38:24.024Z,10.95
2023-03-06T03:38:45.768Z,10.96
2023-03-06T03:39:07.430Z,10.97
2023-03-06T03:39:29.711Z,11.00
2023-03-06T03:39:51.701Z,11.04
2023-03-06T03:40:14.777Z,11.03
2023-03-06T03:40:38.429Z,11.03
2023-03-06T03:41:00.833Z,11.08
2023-03-06T03:41:24.234Z,11.10
2023-03-06T03:41:47.768Z,11.12
2023-03-06T03:42:10.587Z,11.13
2023-03-06T03:42:32.396Z,11.15
2023-03-06T03:42:54.041Z,11.15
2023-03-06T03:43:15.658Z,11.15
2023-03-06T03:43:38.289Z,11.18
2023-03-06T03:44:00.065Z,11.15
2023-03-06T03:44:21.793Z,11.20
2023-03-06T03:44:44.129Z,11.21
2023-03-06T03:45:06.655Z,11.21
2023-03-06T03:45:29.272Z,11.23
2023-03-06T03:45:53.013Z,11.22
2023-03-06T03:46:14.802Z,11.22
2023-03-06T03:46:36.985Z,11.24
2023-03-06T03:47:03.951Z,11.21
2023-03-06T03:47:26.002Z,11.22
2023-03-06T03:47:47.762Z,11.21
2023-03-06T03:48:09.541Z,11.22
2023-03-06T03:48:31.196Z,11.22
2023-03-06T03:48:53.950Z,11.21
2023-03-06T03:49:16.798Z,11.25
2023-03-06T03:49:39.599Z,11.24
2023-03-06T03:50:01.871Z,11.24
2023-03-06T03:50:24.242Z,11.23
2023-03-06T03:50:47.172Z,11.25
2023-03-06T03:51:10.556Z,11.25
2023-03-06T03:51:35.940Z,11.14
2023-03-06T03:51:58.693Z,11.31
2023-03-06T03:52:23.438Z,11.31
2023-03-06T03:52:45.203Z,11.30
2023-03-06T03:53:07.660Z,11.27
2023-03-06T03:53:29.618Z,11.31
2023-03-06T03:53:52.557Z,11.35
2023-03-06T03:54:17.976Z,11.36
2023-03-06T03:54:42.053Z,11.30
2023-03-06T03:55:04.133Z,11.30
2023-03-06T03:55:26.493Z,11.34
2023-03-06T03:55:49.671Z,11.22
2023-03-06T03:56:14.068Z,11.34
2023-03-06T03:56:45.718Z,11.38
2023-03-06T03:57:14.335Z,11.39
2023-03-06T03:57:41.332Z,11.40
2023-03-06T03:58:03.240Z,11.39
2023-03-06T03:58:25.984Z,11.38
2023-03-06T03:58:48.904Z,11.39
2023-03-06T03:59:12.393Z,11.40
2023-03-06T03:59:41.957Z,11.38
2023-03-06T04:00:18.305Z,11.35
2023-03-06T04:00:49.714Z,11.39
2023-03-06T04:01:11.365Z,11.41
2023-03-06T04:01:33.401Z,11.38
2023-03-06T04:01:56.493Z,11.40
2023-03-06T04:02:21.665Z,11.31
2023-03-06T04:02:51.605Z,11.31
2023-03-06T04:03:21.814Z,11.28
2023-03-06T04:03:44.567Z,11.12
2023-03-06T04:04:07.719Z,11.25
2023-03-06T04:04:29.879Z,11.23
2023-03-06T04:04:51.778Z,11.24
2023-03-06T04:05:15.780Z,11.24
2023-03-06T04:05:37.397Z,11.30
2023-03-06T04:06:02.441Z,11.30
2023-03-06T04:06:24.006Z,11.31
2023-03-06T04:06:46.843Z,11.32
2023-03-06T04:07:09.973Z,11.30
2023-03-06T04:07:33.108Z,11.33
2023-03-06T04:07:54.929Z,11.34
2023-03-06T04:08:16.560Z,11.35
2023-03-06T04:08:41.674Z,11.25
2023-03-06T04:09:04.455Z,11.25
2023-03-06T04:09:26.432Z,11.25
2023-03-06T04:09:48.127Z,11.25
2023-03-06T04:10:12.750Z,11.16
2023-03-06T04:10:34.900Z,11.20
2023-03-06T04:10:57.767Z,11.30
2023-03-06T04:11:19.442Z,11.30
2023-03-06T04:11:41.140Z,11.32
2023-03-06T04:12:05.941Z,11.29
2023-03-06T04:12:29.504Z,11.27
2023-03-06T04:12:51.217Z,11.26
2023-03-06T04:13:13.375Z,11.31
2023-03-06T04:13:38.922Z,11.34
2023-03-06T04:14:00.991Z,11.31
2023-03-06T04:14:22.805Z,11.32
2023-03-06T04:14:44.577Z,11.31
2023-03-06T04:15:08.204Z,11.31
2023-03-06T04:15:31.670Z,11.31
2023-03-06T04:15:56.261Z,11.31
2023-03-06T04:16:18.967Z,11.31
2023-03-06T04:16:40.771Z,11.35
2023-03-06T04:17:03.438Z,11.32
2023-03-06T04:17:25.907Z,11.35
2023-03-06T04:17:48.991Z,11.35
2023-03-06T04:18:16.417Z,11.35
2023-03-06T04:18:39.657Z,11.36
2023-03-06T04:19:02.302Z,11.36
2023-03-06T04:19:24.701Z,11.35
2023-03-06T04:19:46.466Z,11.32
2023-03-06T04:20:09.606Z,11.19
2023-03-06T04:20:32.391Z,11.08
2023-03-06T04:20:55.341Z,11.21
2023-03-06T04:21:17.250Z,11.17
2023-03-06T04:21:38.905Z,11.20
2023-03-06T04:22:03.041Z,11.21
2023-03-06T04:22:27.760Z,11.21
2023-03-06T04:22:52.675Z,11.20
2023-03-06T04:23:15.578Z,11.16
2023-03-06T04:23:39.063Z,11.18
2023-03-06T04:24:01.250Z,11.19
2023-03-06T04:24:22.984Z,11.21
2023-03-06T04:24:44.949Z,11.21
2023-03-06T04:25:07.511Z,11.23
2023-03-06T04:25:31.244Z,11.23
2023-03-06T04:25:54.782Z,11.20
2023-03-06T04:26:17.121Z,11.24
2023-03-06T04:26:38.767Z,11.23
2023-03-06T04:27:01.691Z,11.24
2023-03-06T04:27:24.776Z,11.28
2023-03-06T04:27:46.708Z,11.28
2023-03-06T04:28:08.928Z,11.27
2023-03-06T04:28:31.580Z,11.29
2023-03-06T04:28:55.536Z,11.28
2023-03-06T04:29:17.391Z,11.29
2023-03-06T04:29:39.118Z,11.20
2023-03-06T04:30:01.864Z,11.26
2023-03-06T04:30:24.689Z,11.29
2023-03-06T04:30:46.458Z,11.28
2023-03-06T04:31:08.647Z,11.28
2023-03-06T04:31:31.359Z,11.27
2023-03-06T04:31:53.054Z,11.23
2023-03-06T04:32:14.856Z,11.22
2023-03-06T04:32:36.739Z,11.20
2023-03-06T04:33:01.253Z,11.22
2023-03-06T04:33:23.426Z,11.20
2023-03-06T04:33:45.038Z,11.21
2023-03-06T04:34:07.502Z,11.19
2023-03-06T04:34:29.227Z,11.18
2023-03-06T04:34:53.204Z,11.18
2023-03-06T04:35:15.100Z,11.15
2023-03-06T04:35:46.141Z,11.19
2023-03-06T04:36:25.969Z,11.15
2023-03-06T04:36:49.672Z,11.17
2023-03-06T04:37:19.415Z,11.14
2023-03-06T04:37:41.107Z,11.20
2023-03-06T04:38:03.951Z,11.23
2023-03-06T04:38:26.270Z,11.23
2023-03-06T04:38:47.936Z,11.20
2023-03-06T04:39:09.812Z,11.15
2023-03-06T04:39:32.754Z,11.05
2023-03-06T04:39:54.681Z,10.86
2023-03-06T04:40:19.283Z,10.94
2023-03-06T04:40:40.937Z,10.98
2023-03-06T04:41:03.583Z,11.00
2023-03-06T04:41:25.377Z,11.05
2023-03-06T04:41:47.156Z,11.04
2023-03-06T04:42:08.850Z,11.06
2023-03-06T04:42:31.855Z,11.10
2023-03-06T04:42:54.369Z,11.09
2023-03-06T04:43:16.070Z,11.12
2023-03-06T04:43:39.429Z,11.16
2023-03-06T04:44:01.032Z,11.14
2023-03-06T04:44:22.733Z,11.14
2023-03-06T04:44:45.951Z,11.18
2023-03-06T04:45:09.125Z,11.16
2023-03-06T04:45:31.992Z,11.15
2023-03-06T04:45:53.744Z,11.19
2023-03-06T04:46:16.467Z,11.14
2023-03-06T04:46:38.095Z,11.13
2023-03-06T04:46:59.710Z,11.15
2023-03-06T04:47:21.422Z,11.09
2023-03-06T04:47:44.063Z,11.05
2023-03-06T04:48:06.674Z,11.18
2023-03-06T04:48:28.669Z,11.19
2023-03-06T04:48:51.386Z,11.19
2023-03-06T04:49:13.345Z,11.22
2023-03-06T04:49:34.971Z,11.24
2023-03-06T04:49:56.681Z,11.26
2023-03-06T04:50:20.425Z,11.26
2023-03-06T04:50:42.072Z,11.25
2023-03-06T04:51:04.129Z,11.29
2023-03-06T04:51:26.878Z,11.27
2023-03-06T04:51:48.477Z,11.27
2023-03-06T04:52:10.197Z,11.30
2023-03-06T04:52:33.064Z,11.33
2023-03-06T04:52:55.633Z,11.30
2023-03-06T04:53:19.499Z,11.32
2023-03-06T04:53:41.181Z,11.32
2023-03-06T04:54:03.331Z,11.34
2023-03-06T04:54:26.081Z,11.32
2023-03-06T04:54:47.701Z,11.31
2023-03-06T04:55:12.389Z,11.29
2023-03-06T04:55:34.348Z,11.29
2023-03-06T04:55:57.043Z,11.25
2023-03-06T04:56:18.783Z,11.13
2023-03-06T04:56:40.418Z,11.23
2023-03-06T04:57:02.178Z,11.22
2023-03-06T04:57:24.996Z,11.23
2023-03-06T04:57:48.398Z,11.24
2023-03-06T04:58:11.502Z,11.22
2023-03-06T04:58:33.285Z,11.21
2023-03-06T04:58:55.314Z,11.20
2023-03-06T04:59:17.895Z,11.17